Halifax, Kentucky
Current Conditions -  °F | °C
As of 5:53 PM on Wednesday 22 Oct 2014 (Local Time) from KBWG Reporting Station
Clear Clear  
Wind Chill: 58°   Ceiling: Unl
Heat Index: 58°   Visibility: 10mi
Dew Point: 41°   Wind: 5mph
Humidity: 53%   Direction: 20°NNE
Pressure: 30.22"   Gusts: NA
Location:  36.7794°N, 86.196°W
Report Text: KBWG 222253Z AUTO 02004KT 10SM CLR 14/05 A3022 RMK AO2 SLP232 T01440050
Loading
Personal Weather Stations






























Interactive Weather Map
Tropical Storm Tracking
New forecast layout! Learn more

10-Day Weather Forecast

Advertisements
Track Severe Weather on mobile